createdAt,value
2023-05-10T00:02:05.831Z,99.00
2023-05-10T00:04:33.772Z,99.39
2023-05-10T00:07:01.774Z,99.32
2023-05-10T00:09:29.933Z,100.00
2023-05-10T00:11:59.436Z,100.00
2023-05-10T00:14:27.590Z,100.00
2023-05-10T00:16:56.898Z,100.00
2023-05-10T00:19:24.834Z,100.00
2023-05-10T00:21:52.740Z,100.00
2023-05-10T00:24:20.673Z,100.00
2023-05-10T00:26:48.666Z,100.00
2023-05-10T00:29:16.532Z,100.00
2023-05-10T00:31:44.476Z,100.00
2023-05-10T00:34:13.772Z,100.00
2023-05-10T00:36:41.741Z,100.00
2023-05-10T00:39:09.698Z,100.00
2023-05-10T00:41:37.554Z,100.00
2023-05-10T00:44:05.673Z,100.00
2023-05-10T00:46:33.947Z,100.00
2023-05-10T00:49:02.017Z,100.00
2023-05-10T00:51:32.074Z,100.00
2023-05-10T00:54:00.687Z,100.00
2023-05-10T00:56:30.668Z,100.00
2023-05-10T00:58:58.746Z,100.00
2023-05-10T01:01:27.171Z,100.00
2023-05-10T01:03:56.573Z,100.00
2023-05-10T01:06:24.431Z,100.00
2023-05-10T01:08:53.834Z,100.00
2023-05-10T01:11:21.922Z,100.00
2023-05-10T01:13:57.734Z,100.00
2023-05-10T01:16:26.440Z,100.00
2023-05-10T01:18:55.156Z,100.00
2023-05-10T01:21:29.871Z,100.00
2023-05-10T01:24:17.290Z,100.00
2023-05-10T01:27:17.864Z,100.00
2023-05-10T01:30:15.305Z,100.00
2023-05-10T01:32:51.740Z,100.00
2023-05-10T01:35:24.993Z,100.00
2023-05-10T01:37:59.129Z,100.00
2023-05-10T01:40:33.671Z,100.00
2023-05-10T01:43:04.878Z,100.00
2023-05-10T01:45:36.369Z,100.00
2023-05-10T01:48:12.032Z,100.00
2023-05-10T01:50:43.866Z,100.00
2023-05-10T01:53:13.757Z,100.00
2023-05-10T01:55:47.257Z,100.00
2023-05-10T01:58:21.220Z,100.00
2023-05-10T02:00:51.995Z,100.00
2023-05-10T02:03:24.386Z,100.00
2023-05-10T02:05:54.311Z,100.00
2023-05-10T02:08:24.033Z,100.00
2023-05-10T02:10:55.825Z,100.00
2023-05-10T02:13:25.672Z,100.00
2023-05-10T02:15:56.726Z,100.00
2023-05-10T02:18:27.948Z,100.00
2023-05-10T02:20:57.583Z,100.00
2023-05-10T02:23:27.300Z,100.00
2023-05-10T02:25:56.984Z,100.00
2023-05-10T02:28:26.678Z,100.00
2023-05-10T02:30:56.678Z,100.00
2023-05-10T02:33:27.227Z,100.00
2023-05-10T02:35:55.497Z,100.00
2023-05-10T02:38:24.793Z,100.00
2023-05-10T02:40:53.233Z,100.00
2023-05-10T02:43:24.667Z,100.00
2023-05-10T02:45:52.716Z,100.00
2023-05-10T02:48:20.861Z,100.00
2023-05-10T02:50:52.927Z,100.00
2023-05-10T02:53:24.818Z,100.00
2023-05-10T02:55:54.803Z,100.00
2023-05-10T02:58:23.713Z,100.00
2023-05-10T03:00:51.735Z,100.00
2023-05-10T03:03:19.925Z,100.00
2023-05-10T03:05:47.902Z,100.00
2023-05-10T03:08:17.301Z,100.00
2023-05-10T03:11:05.970Z,100.00
2023-05-10T03:13:41.898Z,100.00
2023-05-10T03:16:14.313Z,100.00
2023-05-10T03:18:47.696Z,100.00
2023-05-10T03:21:18.655Z,100.00
2023-05-10T03:23:52.488Z,100.00
2023-05-10T03:26:26.450Z,100.00
2023-05-10T03:28:55.218Z,100.00
2023-05-10T03:31:23.544Z,100.00
2023-05-10T03:33:52.838Z,100.00
2023-05-10T03:36:21.583Z,100.00
2023-05-10T03:38:50.861Z,100.00
2023-05-10T03:41:18.795Z,100.00
2023-05-10T03:43:46.691Z,100.00
2023-05-10T03:46:14.616Z,100.00
2023-05-10T03:48:42.642Z,100.00
2023-05-10T03:51:10.700Z,100.00
2023-05-10T03:53:38.575Z,100.00
2023-05-10T03:56:08.204Z,100.00
2023-05-10T03:58:36.133Z,100.00
2023-05-10T04:01:03.992Z,100.00
2023-05-10T04:03:31.989Z,100.00
2023-05-10T04:06:03.376Z,100.00
2023-05-10T04:08:31.568Z,100.00
2023-05-10T04:11:09.137Z,100.00
2023-05-10T04:13:37.710Z,100.00
2023-05-10T04:16:06.391Z,100.00
2023-05-10T04:18:34.440Z,100.00
2023-05-10T04:21:02.645Z,100.00
2023-05-10T04:23:30.641Z,100.00
2023-05-10T04:26:02.725Z,100.00
2023-05-10T04:28:32.151Z,100.00
2023-05-10T04:31:03.880Z,100.00
2023-05-10T04:33:31.962Z,100.00
2023-05-10T04:35:59.971Z,100.00
2023-05-10T04:38:28.503Z,100.00
2023-05-10T04:40:56.485Z,100.00
2023-05-10T04:43:24.370Z,100.00
2023-05-10T04:45:53.646Z,100.00
2023-05-10T04:48:21.550Z,100.00
2023-05-10T04:50:49.429Z,100.00
2023-05-10T04:53:17.509Z,100.00
2023-05-10T04:55:45.497Z,100.00
2023-05-10T04:58:13.441Z,100.00
2023-05-10T05:00:41.642Z,100.00
2023-05-10T05:03:11.029Z,100.00
2023-05-10T05:05:39.081Z,100.00
2023-05-10T05:08:07.829Z,100.00
2023-05-10T05:10:35.989Z,100.00
2023-05-10T05:13:04.142Z,99.87
2023-05-10T05:15:32.188Z,100.00
2023-05-10T05:18:00.181Z,100.00
2023-05-10T05:20:29.519Z,100.00
2023-05-10T05:22:57.430Z,100.00
2023-05-10T05:25:25.384Z,100.00
2023-05-10T05:27:53.332Z,98.72
2023-05-10T05:30:21.458Z,99.70
2023-05-10T05:32:49.512Z,97.91
2023-05-10T05:35:17.645Z,97.04
2023-05-10T05:37:47.124Z,99.65
2023-05-10T05:40:15.578Z,100.00
2023-05-10T05:42:43.559Z,97.33
2023-05-10T05:45:14.074Z,96.60
2023-05-10T05:47:42.382Z,98.86
2023-05-10T05:50:11.398Z,98.74
2023-05-10T05:52:39.370Z,99.29
2023-05-10T05:55:09.384Z,99.21
2023-05-10T05:57:37.232Z,100.00
2023-05-10T06:00:06.170Z,100.00
2023-05-10T06:02:34.109Z,98.75
2023-05-10T06:05:02.088Z,98.50
2023-05-10T06:07:30.397Z,100.00
2023-05-10T06:09:58.352Z,100.00
2023-05-10T06:12:27.655Z,100.00
2023-05-10T06:14:55.632Z,100.00
2023-05-10T06:17:23.773Z,100.00
2023-05-10T06:19:51.738Z,100.00
2023-05-10T06:22:19.914Z,100.00
2023-05-10T06:24:48.012Z,100.00
2023-05-10T06:27:15.980Z,100.00
2023-05-10T06:29:45.422Z,99.93
2023-05-10T06:32:13.371Z,99.86
2023-05-10T06:34:41.387Z,97.67
2023-05-10T06:37:09.357Z,97.23
2023-05-10T06:39:37.855Z,98.03
2023-05-10T06:42:06.270Z,96.99
2023-05-10T06:44:34.338Z,98.01
2023-05-10T06:47:03.664Z,97.82
2023-05-10T06:49:31.599Z,98.23
2023-05-10T06:51:59.489Z,96.59
2023-05-10T06:54:27.552Z,95.47
2023-05-10T06:56:55.536Z,95.90
2023-05-10T06:59:23.718Z,96.05
2023-05-10T07:01:51.758Z,97.14
2023-05-10T07:04:21.141Z,94.65
2023-05-10T07:06:50.655Z,94.12
2023-05-10T07:09:18.758Z,92.40
2023-05-10T07:11:46.741Z,93.96
2023-05-10T07:14:14.704Z,93.38
2023-05-10T07:16:42.639Z,93.49
2023-05-10T07:19:10.633Z,90.94
2023-05-10T07:21:41.489Z,90.30
2023-05-10T07:24:09.521Z,90.45
2023-05-10T07:26:37.797Z,90.67
2023-05-10T07:29:05.713Z,91.34
2023-05-10T07:31:33.672Z,89.32
2023-05-10T07:34:01.622Z,89.17
2023-05-10T07:36:29.962Z,88.98
2023-05-10T07:38:59.543Z,86.24
2023-05-10T07:41:27.485Z,86.64
2023-05-10T07:43:55.789Z,86.03
2023-05-10T07:46:24.002Z,84.95
2023-05-10T07:48:52.155Z,83.63
2023-05-10T07:51:20.165Z,81.84
2023-05-10T07:53:48.145Z,83.58
2023-05-10T07:56:26.268Z,83.38
2023-05-10T07:58:54.343Z,83.05
2023-05-10T08:01:22.394Z,79.23
2023-05-10T08:03:51.730Z,79.80
2023-05-10T08:06:20.264Z,80.32
2023-05-10T08:08:50.444Z,79.57
2023-05-10T08:11:18.762Z,81.62
2023-05-10T08:13:48.666Z,81.50
2023-05-10T08:16:16.711Z,81.98
2023-05-10T08:18:46.637Z,80.62
2023-05-10T08:21:14.891Z,78.58
2023-05-10T08:23:44.729Z,80.03
2023-05-10T08:26:12.992Z,79.77
2023-05-10T08:28:41.016Z,80.11
2023-05-10T08:31:10.461Z,78.44
2023-05-10T08:33:38.488Z,78.10
2023-05-10T08:36:06.684Z,79.03
2023-05-10T08:38:34.990Z,80.95
2023-05-10T08:41:04.614Z,79.21
2023-05-10T08:43:33.638Z,74.93
2023-05-10T08:46:03.851Z,76.32
2023-05-10T08:48:36.523Z,73.96
2023-05-10T08:51:05.874Z,75.77
2023-05-10T08:53:37.495Z,74.86
2023-05-10T08:56:06.349Z,76.01
2023-05-10T08:58:34.478Z,75.50
2023-05-10T09:01:03.441Z,75.04
2023-05-10T09:03:33.726Z,74.01
2023-05-10T09:06:01.674Z,74.88
2023-05-10T09:08:30.502Z,74.56
2023-05-10T09:10:58.926Z,73.23
2023-05-10T09:13:27.257Z,73.28
2023-05-10T09:15:55.520Z,73.31
2023-05-10T09:18:24.042Z,73.91
2023-05-10T09:20:54.408Z,75.78
2023-05-10T09:23:22.436Z,72.65
2023-05-10T09:25:50.764Z,73.22
2023-05-10T09:28:18.665Z,73.44
2023-05-10T09:30:56.586Z,74.66
2023-05-10T09:33:25.081Z,71.33
2023-05-10T09:35:55.368Z,73.80
2023-05-10T09:38:23.788Z,73.72
2023-05-10T09:40:56.819Z,71.10
2023-05-10T09:43:24.701Z,68.44
2023-05-10T09:45:52.704Z,68.75
2023-05-10T09:48:20.678Z,66.71
2023-05-10T09:51:00.276Z,67.98
2023-05-10T09:53:28.290Z,67.98
2023-05-10T09:55:56.438Z,66.87
2023-05-10T09:58:24.433Z,67.25
2023-05-10T10:00:53.353Z,68.44
2023-05-10T10:03:23.625Z,69.02
2023-05-10T10:05:52.309Z,68.17
2023-05-10T10:08:21.844Z,67.13
2023-05-10T10:10:52.539Z,70.25
2023-05-10T10:13:21.164Z,68.59
2023-05-10T10:15:52.160Z,68.76
2023-05-10T10:18:24.531Z,67.25
2023-05-10T10:20:52.589Z,67.11
2023-05-10T10:23:21.839Z,68.58
2023-05-10T10:25:50.965Z,68.58
2023-05-10T10:28:28.284Z,69.81
2023-05-10T10:30:58.371Z,67.92
2023-05-10T10:33:38.480Z,68.30
2023-05-10T10:36:07.484Z,65.31
2023-05-10T10:38:58.968Z,64.57
2023-05-10T10:41:35.174Z,63.04
2023-05-10T10:44:26.032Z,64.85
2023-05-10T10:47:01.609Z,64.55
2023-05-10T10:49:29.620Z,63.65
2023-05-10T10:52:17.236Z,59.08
2023-05-10T10:54:53.019Z,59.49
2023-05-10T10:57:22.615Z,60.75
2023-05-10T10:59:51.057Z,59.59
2023-05-10T11:02:46.977Z,57.39
2023-05-10T11:05:37.164Z,58.41
2023-05-10T11:08:14.305Z,58.01
2023-05-10T11:10:53.976Z,56.53
2023-05-10T11:13:31.316Z,57.29
2023-05-10T11:15:59.975Z,60.09
2023-05-10T11:18:29.587Z,58.50
2023-05-10T11:21:03.803Z,59.40
2023-05-10T11:23:33.341Z,61.61
2023-05-10T11:26:03.062Z,59.78
2023-05-10T11:28:30.992Z,57.58
2023-05-10T11:30:59.137Z,58.17
2023-05-10T11:33:27.068Z,56.79
2023-05-10T11:35:54.953Z,58.58
2023-05-10T11:38:22.888Z,54.86
2023-05-10T11:40:54.411Z,53.30
2023-05-10T11:43:29.150Z,52.37
2023-05-10T11:45:57.204Z,52.73
2023-05-10T11:48:25.182Z,53.63
2023-05-10T11:50:53.835Z,54.37
2023-05-10T11:53:23.778Z,50.83
2023-05-10T11:55:53.336Z,50.60
2023-05-10T11:58:24.397Z,52.48
2023-05-10T12:00:52.649Z,53.62
2023-05-10T12:03:20.895Z,53.92
2023-05-10T12:05:48.956Z,54.24
2023-05-10T12:08:18.078Z,53.31
2023-05-10T12:10:45.984Z,54.79
2023-05-10T12:13:15.489Z,52.63
2023-05-10T12:15:45.578Z,52.53
2023-05-10T12:18:14.610Z,52.09
2023-05-10T12:20:43.147Z,52.58
2023-05-10T12:23:15.185Z,53.76
2023-05-10T12:25:43.062Z,55.01
2023-05-10T12:28:11.692Z,55.29
2023-05-10T12:30:40.412Z,54.65
2023-05-10T12:33:15.981Z,57.83
2023-05-10T12:35:48.791Z,57.35
2023-05-10T12:38:31.771Z,54.95
2023-05-10T12:41:01.412Z,56.74
2023-05-10T12:43:29.531Z,57.26
2023-05-10T12:45:57.971Z,55.68
2023-05-10T12:48:27.325Z,54.62
2023-05-10T12:50:55.257Z,53.09
2023-05-10T12:53:23.120Z,54.90
2023-05-10T12:55:51.035Z,52.98
2023-05-10T12:58:31.917Z,53.47
2023-05-10T13:01:03.646Z,52.71
2023-05-10T13:03:33.205Z,51.38
2023-05-10T13:06:01.266Z,50.27
2023-05-10T13:08:30.754Z,49.44
2023-05-10T13:10:58.709Z,50.68
2023-05-10T13:13:27.212Z,50.78
2023-05-10T13:15:55.216Z,50.88
2023-05-10T13:18:23.155Z,51.19
2023-05-10T13:20:52.544Z,52.64
2023-05-10T13:23:20.426Z,54.03
2023-05-10T13:25:48.347Z,52.99
2023-05-10T13:28:16.316Z,52.55
2023-05-10T13:30:44.444Z,52.55
2023-05-10T13:33:12.417Z,52.42
2023-05-10T13:35:40.475Z,52.85
2023-05-10T13:38:10.443Z,52.50
2023-05-10T13:40:38.365Z,52.41
2023-05-10T13:43:06.347Z,51.92
2023-05-10T13:45:34.290Z,51.72
2023-05-10T13:48:02.153Z,52.27
2023-05-10T13:50:30.103Z,54.10
2023-05-10T13:52:58.012Z,54.67
2023-05-10T13:56:21.016Z,53.72
2023-05-10T13:58:50.288Z,53.51
2023-05-10T14:01:18.305Z,55.17
2023-05-10T14:03:46.399Z,55.15
2023-05-10T14:06:14.386Z,53.16
2023-05-10T14:08:42.300Z,52.62
2023-05-10T14:11:10.430Z,51.98
2023-05-10T14:13:38.323Z,52.73
2023-05-10T14:16:08.533Z,53.67
2023-05-10T14:18:36.591Z,53.67
2023-05-10T14:21:05.006Z,54.53
2023-05-10T14:23:33.022Z,54.24
2023-05-10T14:26:00.997Z,55.16
2023-05-10T14:28:29.003Z,54.92
2023-05-10T14:30:57.129Z,52.99
2023-05-10T14:33:26.648Z,52.98
2023-05-10T14:35:57.596Z,53.63
2023-05-10T14:38:25.757Z,54.52
2023-05-10T14:40:53.624Z,54.10
2023-05-10T14:43:21.518Z,54.57
2023-05-10T14:45:49.452Z,53.75
2023-05-10T14:48:18.541Z,53.20
2023-05-10T14:50:48.167Z,52.07
2023-05-10T14:53:36.268Z,52.32
2023-05-10T14:56:04.177Z,53.37
2023-05-10T14:58:34.110Z,53.52
2023-05-10T15:01:02.467Z,53.77
2023-05-10T15:03:30.856Z,54.80
2023-05-10T15:06:00.645Z,55.06
2023-05-10T15:08:28.850Z,54.01
2023-05-10T15:10:57.336Z,53.92
2023-05-10T15:13:25.247Z,53.80
2023-05-10T15:15:53.376Z,54.21
2023-05-10T15:18:21.392Z,53.83
2023-05-10T15:20:49.337Z,54.44
2023-05-10T15:23:18.715Z,54.45
2023-05-10T15:25:46.694Z,54.21
2023-05-10T15:28:14.666Z,54.63
2023-05-10T15:30:42.602Z,55.00
2023-05-10T15:33:10.554Z,54.98
2023-05-10T15:35:40.561Z,55.28
2023-05-10T15:38:08.400Z,55.63
2023-05-10T15:40:37.679Z,55.15
2023-05-10T15:43:06.267Z,54.27
2023-05-10T15:45:35.219Z,54.04
2023-05-10T15:48:05.828Z,54.41
2023-05-10T15:50:33.830Z,53.23
2023-05-10T15:53:01.793Z,53.25
2023-05-10T15:55:29.849Z,53.68
2023-05-10T15:57:59.175Z,53.83
2023-05-10T16:00:27.174Z,53.65
2023-05-10T16:02:55.280Z,53.06
2023-05-10T16:05:23.443Z,52.43
2023-05-10T16:07:51.588Z,52.42
2023-05-10T16:10:19.701Z,52.68
2023-05-10T16:12:47.580Z,52.63
2023-05-10T16:15:17.123Z,53.49
2023-05-10T16:17:45.303Z,54.68
2023-05-10T16:20:13.398Z,55.89
2023-05-10T16:22:41.350Z,55.76
2023-05-10T16:25:11.013Z,55.33
2023-05-10T16:27:40.683Z,54.85
2023-05-10T16:30:10.079Z,54.43
2023-05-10T16:32:39.433Z,55.03
2023-05-10T16:35:08.589Z,54.83
2023-05-10T16:37:36.453Z,55.25
2023-05-10T16:40:04.853Z,55.31
2023-05-10T16:42:32.720Z,56.36
2023-05-10T16:45:07.284Z,57.11
2023-05-10T16:47:35.353Z,57.01
2023-05-10T16:50:05.886Z,57.85
2023-05-10T16:52:34.771Z,58.68
2023-05-10T16:55:03.351Z,57.87
2023-05-10T16:57:32.927Z,58.51
2023-05-10T17:00:00.996Z,57.23
2023-05-10T17:02:29.076Z,57.08
2023-05-10T17:04:57.108Z,57.08
2023-05-10T17:07:28.668Z,57.09
2023-05-10T17:09:56.749Z,57.25
2023-05-10T17:12:24.703Z,58.36
2023-05-10T17:14:52.799Z,58.38
2023-05-10T17:17:20.785Z,58.42
2023-05-10T17:19:48.865Z,59.07
2023-05-10T17:22:16.983Z,58.96
2023-05-10T17:24:46.986Z,59.58
2023-05-10T17:27:15.168Z,60.13
2023-05-10T17:29:43.055Z,61.01
2023-05-10T17:32:11.112Z,60.39
2023-05-10T17:34:40.096Z,59.77
2023-05-10T17:37:10.307Z,60.67
2023-05-10T17:39:40.115Z,61.36
2023-05-10T17:42:09.418Z,61.63
2023-05-10T17:44:37.248Z,62.05
2023-05-10T17:47:06.303Z,62.97
2023-05-10T17:49:34.243Z,62.81
2023-05-10T17:52:02.484Z,63.54
2023-05-10T17:54:30.429Z,63.71
2023-05-10T17:56:59.297Z,63.36
2023-05-10T17:59:28.683Z,64.95
2023-05-10T18:01:56.536Z,65.22
2023-05-10T18:04:24.531Z,64.98
2023-05-10T18:06:55.223Z,64.67
2023-05-10T18:09:23.155Z,63.66
2023-05-10T18:11:51.059Z,63.97
2023-05-10T18:14:31.960Z,63.61
2023-05-10T18:17:06.155Z,64.36
2023-05-10T18:19:34.152Z,65.26
2023-05-10T18:22:02.080Z,64.84
2023-05-10T18:24:38.949Z,66.30
2023-05-10T18:27:08.272Z,66.03
2023-05-10T18:29:36.343Z,64.85
2023-05-10T18:32:06.147Z,65.61
2023-05-10T18:34:34.498Z,65.64
2023-05-10T18:37:07.745Z,66.34
2023-05-10T18:39:36.022Z,64.78
2023-05-10T18:42:05.084Z,65.04
2023-05-10T18:44:33.064Z,65.65
2023-05-10T18:47:00.996Z,65.91
2023-05-10T18:49:30.292Z,66.47
2023-05-10T18:51:58.173Z,68.12
2023-05-10T18:54:26.784Z,68.69
2023-05-10T18:56:54.706Z,68.86
2023-05-10T18:59:22.926Z,68.96
2023-05-10T19:01:51.370Z,70.98
2023-05-10T19:04:19.489Z,72.16
2023-05-10T19:06:48.880Z,70.24
2023-05-10T19:09:16.791Z,71.26
2023-05-10T19:11:44.704Z,73.75
2023-05-10T19:14:12.639Z,75.33
2023-05-10T19:16:42.737Z,75.24
2023-05-10T19:19:10.868Z,77.56
2023-05-10T19:21:40.971Z,75.73
2023-05-10T19:24:12.472Z,79.07
2023-05-10T19:26:40.494Z,81.63
2023-05-10T19:29:08.434Z,81.87
2023-05-10T19:31:36.434Z,82.55
2023-05-10T19:34:04.638Z,83.47
2023-05-10T19:36:33.018Z,84.04
2023-05-10T19:39:00.956Z,86.01
2023-05-10T19:41:30.220Z,83.13
2023-05-10T19:43:58.135Z,82.04
2023-05-10T19:46:26.070Z,79.65
2023-05-10T19:48:54.094Z,76.64
2023-05-10T19:51:22.279Z,76.44
2023-05-10T19:53:50.304Z,76.72
2023-05-10T19:56:18.485Z,77.29
2023-05-10T19:58:47.769Z,74.69
2023-05-10T20:01:15.935Z,74.26
2023-05-10T20:03:43.980Z,73.55
2023-05-10T20:06:12.270Z,73.71
2023-05-10T20:08:40.155Z,73.05
2023-05-10T20:11:08.128Z,73.03
2023-05-10T20:13:36.143Z,72.94
2023-05-10T20:16:06.877Z,71.45
2023-05-10T20:18:34.937Z,72.06
2023-05-10T20:21:02.839Z,71.89
2023-05-10T20:23:30.740Z,70.47
2023-05-10T20:25:59.405Z,68.15
2023-05-10T20:28:28.312Z,67.03
2023-05-10T20:30:57.074Z,65.72
2023-05-10T20:33:26.463Z,66.79
2023-05-10T20:35:54.431Z,67.87
2023-05-10T20:38:22.711Z,69.41
2023-05-10T20:40:50.619Z,70.16
2023-05-10T20:43:18.915Z,70.80
2023-05-10T20:45:46.940Z,72.05
2023-05-10T20:48:14.881Z,72.11
2023-05-10T20:50:44.293Z,71.59
2023-05-10T20:53:12.165Z,70.15
2023-05-10T20:55:40.154Z,71.49
2023-05-10T20:58:08.079Z,70.67
2023-05-10T21:00:35.975Z,72.10
2023-05-10T21:03:04.033Z,70.90
2023-05-10T21:05:32.139Z,70.09
2023-05-10T21:08:01.373Z,70.53
2023-05-10T21:10:29.414Z,70.11
2023-05-10T21:12:57.517Z,71.58
2023-05-10T21:15:25.972Z,71.40
2023-05-10T21:17:54.303Z,70.28
2023-05-10T21:20:23.436Z,71.06
2023-05-10T21:22:51.428Z,71.90
2023-05-10T21:25:20.901Z,71.95
2023-05-10T21:27:48.872Z,72.32
2023-05-10T21:30:17.052Z,72.61
2023-05-10T21:32:45.160Z,72.67
2023-05-10T21:35:13.061Z,73.37
2023-05-10T21:37:40.941Z,73.25
2023-05-10T21:40:09.690Z,74.20
2023-05-10T21:42:39.046Z,75.24
2023-05-10T21:45:07.842Z,75.43
2023-05-10T21:47:36.389Z,74.39
2023-05-10T21:50:04.375Z,76.22
2023-05-10T21:52:32.273Z,76.95
2023-05-10T21:55:00.203Z,77.20
2023-05-10T21:57:28.039Z,78.28
2023-05-10T21:59:57.319Z,77.44
2023-05-10T22:02:25.508Z,79.64
2023-05-10T22:04:53.517Z,79.30
2023-05-10T22:07:21.382Z,79.17
2023-05-10T22:09:49.285Z,80.52
2023-05-10T22:12:17.186Z,80.72
2023-05-10T22:14:45.129Z,81.14
2023-05-10T22:17:14.484Z,81.78
2023-05-10T22:19:42.467Z,81.43
2023-05-10T22:22:10.909Z,80.57
2023-05-10T22:24:38.754Z,81.60
2023-05-10T22:27:07.080Z,82.32
2023-05-10T22:29:35.014Z,83.58
2023-05-10T22:32:05.690Z,83.98
2023-05-10T22:34:35.548Z,84.68
2023-05-10T22:37:03.902Z,86.07
2023-05-10T22:39:31.791Z,85.40
2023-05-10T22:41:59.741Z,85.20
2023-05-10T22:44:27.855Z,85.45
2023-05-10T22:46:55.854Z,86.21
2023-05-10T22:49:23.797Z,87.71
2023-05-10T22:51:53.031Z,89.45
2023-05-10T22:54:20.947Z,88.58
2023-05-10T22:56:48.894Z,87.81
2023-05-10T22:59:16.851Z,89.21
2023-05-10T23:01:44.735Z,88.61
2023-05-10T23:04:12.699Z,90.04
2023-05-10T23:06:40.794Z,90.65
2023-05-10T23:09:10.138Z,91.87
2023-05-10T23:11:38.037Z,92.96
2023-05-10T23:14:06.021Z,92.59
2023-05-10T23:16:34.150Z,93.14
2023-05-10T23:19:02.186Z,93.61
2023-05-10T23:21:32.214Z,93.07
2023-05-10T23:24:00.361Z,93.98
2023-05-10T23:26:29.647Z,95.35
2023-05-10T23:28:57.524Z,95.68
2023-05-10T23:31:25.621Z,95.43
2023-05-10T23:33:53.507Z,95.12
2023-05-10T23:36:21.435Z,95.22
2023-05-10T23:38:49.328Z,95.83
2023-05-10T23:41:17.237Z,94.86
2023-05-10T23:43:46.523Z,96.08
2023-05-10T23:46:14.543Z,96.76
2023-05-10T23:48:42.521Z,97.10
2023-05-10T23:51:10.509Z,98.27
2023-05-10T23:53:38.739Z,97.45
2023-05-10T23:56:07.501Z,97.18
2023-05-10T23:58:35.414Z,98.39
